SMZO/ORG METAR and TAF weather

Enter ICAO airport designator
Station Type Date Time Source
SMZO METAR 2019/10/22 17:00 UTC NOAA

SMZO 221700Z 02010KT 9999 SCT035 33/23 Q1009 NOSIG


Station Type Date Time Source
SMZO Decoded METAR 2019/10/22 17:00 UTC NOAA

Station name not available
Oct 22, 2019 - 01:00 PM EDT / 2019.10.22 1700 UTC
Wind: from the NNE (020 degrees) at 12 MPH (10 KT):0
Visibility: greater than 7 mile(s):0
Sky conditions: partly cloudy
Temperature: 91 F (33 C)
Heat index: 99.1 F (37.3 C):1
Dew Point: 73 F (23 C)
Relative Humidity: 55%
Pressure (altimeter): 29.80 in. Hg (1009 hPa)
ob: SMZO 221700Z 02010KT 9999 SCT035 33/23 Q1009 NOSIG
cycle: 17

Station Type Date Time Source
SMZO TAF 2019/10/22 18:06 UTC NOAA

TAF TAF SMZO 221600Z 2218/2318 10008KT 9999 FEW018TCU SCT020 TX33/2218Z TN24/2309Z
TEMPO 2218/2222 VRB12G22KT 4000 TSRA FEW015CB SCT018
BECMG 2222/2300 08005KT CAVOK PROB30
TEMPO 2309/2310 00000KT 4000 BR SCT002
FM231200 10008KT 9999 SCT020

Example: see airport list